createdAt,value
2023-02-26T00:02:06.108Z,3.13
2023-02-26T00:04:36.839Z,3.53
2023-02-26T00:07:07.616Z,2.80
2023-02-26T00:09:38.214Z,3.43
2023-02-26T00:12:11.837Z,3.37
2023-02-26T00:14:44.046Z,3.00
2023-02-26T00:17:30.371Z,3.03
2023-02-26T00:20:03.973Z,3.17
2023-02-26T00:22:36.523Z,2.93
2023-02-26T00:25:09.156Z,3.10
2023-02-26T00:27:41.651Z,2.60
2023-02-26T00:30:15.185Z,3.07
2023-02-26T00:32:47.913Z,2.77
2023-02-26T00:35:21.726Z,2.80
2023-02-26T00:38:01.950Z,2.87
2023-02-26T00:40:43.667Z,2.90
2023-02-26T00:43:20.191Z,2.63
2023-02-26T00:45:55.216Z,2.73
2023-02-26T00:48:32.345Z,3.03
2023-02-26T00:51:06.420Z,3.03
2023-02-26T00:53:40.469Z,3.10
2023-02-26T00:56:11.389Z,3.20
2023-02-26T00:58:42.729Z,2.50
2023-02-26T01:01:13.641Z,3.43
2023-02-26T01:03:45.605Z,3.20
2023-02-26T01:06:19.984Z,3.23
2023-02-26T01:08:53.957Z,3.07
2023-02-26T01:11:26.219Z,2.97
2023-02-26T01:13:58.351Z,3.87
2023-02-26T01:16:33.179Z,3.40
2023-02-26T01:19:09.219Z,3.63
2023-02-26T01:21:42.983Z,3.43
2023-02-26T01:24:16.959Z,3.33
2023-02-26T01:26:50.330Z,2.97
2023-02-26T01:29:22.808Z,3.23
2023-02-26T01:31:57.486Z,2.83
2023-02-26T01:34:32.973Z,2.77
2023-02-26T01:37:06.946Z,2.90
2023-02-26T01:39:42.104Z,2.60
2023-02-26T01:42:18.082Z,2.80
2023-02-26T01:44:57.394Z,2.63
2023-02-26T01:47:32.762Z,2.70
2023-02-26T01:50:13.057Z,2.90
2023-02-26T01:53:24.475Z,2.33
2023-02-26T01:55:58.925Z,2.73
2023-02-26T01:58:32.428Z,2.73
2023-02-26T02:01:03.880Z,3.07
2023-02-26T02:03:37.594Z,3.00
2023-02-26T02:06:12.614Z,2.60
2023-02-26T02:08:43.964Z,3.27
2023-02-26T02:11:15.951Z,2.73
2023-02-26T02:13:54.647Z,2.77
2023-02-26T02:16:29.919Z,2.40
2023-02-26T02:19:04.115Z,2.33
2023-02-26T02:24:40.603Z,2.43
2023-02-26T02:27:15.318Z,2.73
2023-02-26T02:30:35.121Z,2.60
2023-02-26T02:33:09.017Z,2.77
2023-02-26T02:35:44.038Z,2.90
2023-02-26T02:38:18.356Z,2.47
2023-02-26T02:40:52.357Z,2.37
2023-02-26T02:43:26.344Z,2.77
2023-02-26T02:45:59.991Z,2.67
2023-02-26T02:48:33.580Z,3.00
2023-02-26T02:51:24.697Z,2.37
2023-02-26T02:53:58.646Z,2.40
2023-02-26T02:56:32.569Z,2.87
2023-02-26T02:59:06.835Z,2.87
2023-02-26T03:01:40.477Z,2.63
2023-02-26T03:04:13.548Z,2.50
2023-02-26T03:06:46.877Z,2.47
2023-02-26T03:09:18.236Z,4.17
2023-02-26T03:11:49.162Z,3.50
2023-02-26T03:14:20.268Z,2.40
2023-02-26T03:17:10.247Z,2.70
2023-02-26T03:19:44.956Z,2.57
2023-02-26T03:22:18.726Z,2.13
2023-02-26T03:24:53.601Z,2.70
2023-02-26T03:27:27.461Z,2.60
2023-02-26T03:30:01.400Z,2.50
2023-02-26T03:32:35.032Z,2.27
2023-02-26T03:35:09.291Z,2.47
2023-02-26T03:37:42.948Z,1.90
2023-02-26T03:40:17.878Z,1.93
2023-02-26T03:42:51.962Z,2.70
2023-02-26T03:45:25.893Z,2.20
2023-02-26T03:47:59.020Z,2.23
2023-02-26T03:50:32.730Z,2.47
2023-02-26T03:53:05.700Z,2.10
2023-02-26T03:55:39.558Z,2.13
2023-02-26T03:58:10.417Z,2.13
2023-02-26T04:00:43.659Z,2.10
2023-02-26T04:03:18.205Z,2.20
2023-02-26T04:05:51.752Z,2.00
2023-02-26T04:08:24.106Z,2.40
2023-02-26T04:10:58.630Z,2.80
2023-02-26T04:13:29.343Z,2.50
2023-02-26T04:16:00.367Z,2.20
2023-02-26T04:18:31.563Z,2.37
2023-02-26T04:21:02.637Z,2.77
2023-02-26T04:23:33.823Z,2.60
2023-02-26T04:26:05.066Z,2.40
2023-02-26T04:28:38.024Z,2.50
2023-02-26T04:31:27.481Z,2.50
2023-02-26T04:33:58.627Z,2.00
2023-02-26T04:36:30.956Z,2.73
2023-02-26T04:39:02.068Z,2.10
2023-02-26T04:41:33.118Z,2.90
2023-02-26T04:44:04.195Z,2.50
2023-02-26T04:46:35.543Z,2.47
2023-02-26T04:49:06.575Z,2.33
2023-02-26T04:51:37.600Z,2.67
2023-02-26T04:54:08.945Z,2.40
2023-02-26T04:56:39.950Z,2.53
2023-02-26T04:59:10.946Z,2.37
2023-02-26T05:01:41.904Z,2.43
2023-02-26T05:04:13.009Z,2.50
2023-02-26T05:06:44.096Z,2.37
2023-02-26T05:09:15.088Z,2.50
2023-02-26T05:11:46.008Z,2.60
2023-02-26T05:14:17.215Z,2.60
2023-02-26T05:16:48.242Z,2.43
2023-02-26T05:19:19.772Z,2.60
2023-02-26T05:21:50.812Z,2.73
2023-02-26T05:24:22.309Z,3.50
2023-02-26T05:26:53.302Z,2.73
2023-02-26T05:29:24.459Z,2.60
2023-02-26T05:31:55.566Z,2.43
2023-02-26T05:34:26.853Z,2.90
2023-02-26T05:36:58.722Z,3.00
2023-02-26T05:39:29.896Z,3.13
2023-02-26T05:42:01.475Z,3.10
2023-02-26T05:44:32.473Z,3.10
2023-02-26T05:47:03.754Z,3.23
2023-02-26T05:49:34.615Z,2.17
2023-02-26T05:52:05.921Z,2.87
2023-02-26T05:54:36.886Z,2.67
2023-02-26T05:57:08.115Z,2.87
2023-02-26T05:59:39.331Z,3.27
2023-02-26T06:02:10.537Z,3.07
2023-02-26T06:04:41.815Z,3.23
2023-02-26T06:07:14.255Z,3.60
2023-02-26T06:09:45.609Z,3.17
2023-02-26T06:12:17.642Z,3.40
2023-02-26T06:14:48.594Z,3.30
2023-02-26T06:17:20.261Z,3.23
2023-02-26T06:19:52.312Z,3.23
2023-02-26T06:22:23.574Z,3.20
2023-02-26T06:24:56.052Z,3.77
2023-02-26T06:27:27.374Z,3.00
2023-02-26T06:29:58.357Z,3.90
2023-02-26T06:32:30.800Z,3.03
2023-02-26T06:35:02.283Z,3.63
2023-02-26T06:37:33.524Z,3.70
2023-02-26T06:40:05.170Z,3.30
2023-02-26T06:42:36.431Z,3.40
2023-02-26T06:47:45.289Z,3.33
2023-02-26T06:50:16.093Z,3.27
2023-02-26T06:52:47.193Z,3.40
2023-02-26T06:55:19.097Z,3.53
2023-02-26T06:57:50.508Z,4.27
2023-02-26T07:00:23.513Z,3.00
2023-02-26T07:02:54.556Z,3.77
2023-02-26T07:05:28.592Z,3.07
2023-02-26T07:07:59.537Z,3.50
2023-02-26T07:10:30.868Z,3.90
2023-02-26T07:13:01.784Z,3.43
2023-02-26T07:15:33.279Z,3.23
2023-02-26T07:18:04.519Z,2.50
2023-02-26T07:20:35.735Z,3.00
2023-02-26T07:23:06.665Z,2.87
2023-02-26T07:25:38.036Z,3.20
2023-02-26T07:28:09.388Z,3.23
2023-02-26T07:30:41.946Z,2.77
2023-02-26T07:33:13.803Z,3.40
2023-02-26T07:35:46.060Z,2.90
2023-02-26T07:38:19.208Z,3.50
2023-02-26T07:40:49.486Z,3.50
2023-02-26T07:43:20.354Z,3.23
2023-02-26T07:45:53.015Z,3.57
2023-02-26T07:48:24.076Z,3.53
2023-02-26T07:50:56.142Z,3.30
2023-02-26T07:53:26.778Z,3.07
2023-02-26T07:55:57.712Z,3.17
2023-02-26T07:58:28.425Z,2.67
2023-02-26T08:00:59.341Z,3.00
2023-02-26T08:03:31.949Z,3.50
2023-02-26T08:06:03.210Z,3.50
2023-02-26T08:08:34.411Z,3.20
2023-02-26T08:11:05.980Z,3.20
2023-02-26T08:13:36.990Z,3.00
2023-02-26T08:16:08.525Z,3.45
2023-02-26T08:18:39.607Z,3.00
2023-02-26T08:21:10.882Z,2.67
2023-02-26T08:23:42.138Z,2.97
2023-02-26T08:26:14.333Z,3.03
2023-02-26T08:28:46.501Z,2.57
2023-02-26T08:33:55.780Z,2.80
2023-02-26T08:36:27.354Z,2.70
2023-02-26T08:38:58.838Z,2.67
2023-02-26T08:41:31.482Z,2.90
2023-02-26T08:44:02.992Z,3.07
2023-02-26T08:46:34.112Z,2.40
2023-02-26T08:49:05.293Z,2.33
2023-02-26T08:51:36.299Z,2.93
2023-02-26T08:54:07.487Z,2.70
2023-02-26T08:56:38.760Z,2.43
2023-02-26T08:59:10.177Z,2.60
2023-02-26T09:01:41.244Z,2.70
2023-02-26T09:04:12.393Z,2.20
2023-02-26T09:06:43.646Z,2.37
2023-02-26T09:09:14.583Z,2.30
2023-02-26T09:11:45.636Z,2.60
2023-02-26T09:16:55.748Z,2.40
2023-02-26T09:19:27.192Z,2.30
2023-02-26T09:21:58.114Z,2.40
2023-02-26T09:24:29.462Z,2.80
2023-02-26T09:27:00.971Z,2.47
2023-02-26T09:29:31.951Z,2.30
2023-02-26T09:32:03.494Z,2.17
2023-02-26T09:34:34.574Z,2.47
2023-02-26T09:37:05.639Z,2.33
2023-02-26T09:39:37.412Z,3.10
2023-02-26T09:42:11.376Z,2.13
2023-02-26T09:44:43.173Z,2.20
2023-02-26T09:47:17.966Z,2.07
2023-02-26T09:49:54.050Z,2.20
2023-02-26T09:52:29.723Z,2.37
2023-02-26T09:55:05.342Z,1.93
2023-02-26T09:57:38.995Z,2.30
2023-02-26T10:00:20.439Z,2.40
2023-02-26T10:02:55.752Z,2.10
2023-02-26T10:05:30.043Z,2.23
2023-02-26T10:08:05.265Z,2.17
2023-02-26T10:10:41.093Z,2.00
2023-02-26T10:13:16.356Z,2.60
2023-02-26T10:15:49.852Z,2.23
2023-02-26T10:18:23.938Z,2.33
2023-02-26T10:23:39.011Z,2.40
2023-02-26T10:26:13.379Z,2.77
2023-02-26T10:28:51.781Z,2.20
2023-02-26T10:31:33.584Z,2.40
2023-02-26T10:34:16.619Z,2.10
2023-02-26T10:36:53.501Z,2.30
2023-02-26T10:39:31.160Z,2.40
2023-02-26T10:42:05.407Z,2.63
2023-02-26T10:44:40.033Z,2.50
2023-02-26T10:47:16.783Z,2.50
2023-02-26T10:49:56.102Z,2.17
2023-02-26T10:52:29.446Z,2.00
2023-02-26T10:55:11.832Z,2.17
2023-02-26T10:57:45.961Z,2.10
2023-02-26T11:00:21.235Z,2.30
2023-02-26T11:02:54.837Z,2.53
2023-02-26T11:05:28.144Z,2.50
2023-02-26T11:10:45.203Z,2.33
2023-02-26T11:13:16.388Z,2.43
2023-02-26T11:15:51.579Z,2.30
2023-02-26T11:18:25.703Z,1.90
2023-02-26T11:21:00.302Z,1.60
2023-02-26T11:23:33.324Z,1.83
2023-02-26T11:26:07.651Z,1.80
2023-02-26T11:28:41.650Z,1.70
2023-02-26T11:31:15.153Z,1.40
2023-02-26T11:33:50.325Z,1.43
2023-02-26T11:36:24.620Z,1.30
2023-02-26T11:38:58.543Z,1.70
2023-02-26T11:41:49.182Z,1.33
2023-02-26T11:44:23.625Z,1.23
2023-02-26T11:46:57.536Z,1.30
2023-02-26T11:49:30.197Z,1.20
2023-02-26T11:52:19.602Z,1.87
2023-02-26T11:54:53.576Z,1.43
2023-02-26T12:00:08.549Z,1.30
2023-02-26T12:02:41.423Z,1.50
2023-02-26T12:05:17.997Z,1.40
2023-02-26T12:07:49.073Z,1.40
2023-02-26T12:10:24.450Z,1.07
2023-02-26T12:13:03.093Z,1.13
2023-02-26T12:15:40.565Z,1.50
2023-02-26T12:18:30.317Z,1.40
2023-02-26T12:21:07.962Z,1.30
2023-02-26T12:24:07.921Z,1.63
2023-02-26T12:26:42.443Z,1.20
2023-02-26T12:29:48.855Z,1.40
2023-02-26T12:32:29.754Z,1.40
2023-02-26T12:35:44.041Z,1.50
2023-02-26T12:38:27.770Z,1.70
2023-02-26T12:41:34.017Z,1.17
2023-02-26T12:44:07.688Z,1.40
2023-02-26T12:46:51.215Z,1.60
2023-02-26T12:49:47.337Z,1.43
2023-02-26T12:52:38.589Z,1.20
2023-02-26T12:55:26.256Z,1.70
2023-02-26T13:01:45.153Z,1.50
2023-02-26T13:04:26.989Z,1.50
2023-02-26T13:07:18.052Z,1.13
2023-02-26T13:09:58.408Z,1.30
2023-02-26T13:15:45.755Z,1.13
2023-02-26T13:18:19.659Z,1.50
2023-02-26T13:20:55.225Z,1.40
2023-02-26T13:23:28.810Z,1.50
2023-02-26T13:26:02.920Z,1.60
2023-02-26T13:28:42.971Z,1.57
2023-02-26T13:31:18.671Z,1.37
2023-02-26T13:33:51.859Z,1.50
2023-02-26T13:36:25.805Z,1.20
2023-02-26T13:39:03.874Z,0.97
2023-02-26T13:41:40.852Z,1.33
2023-02-26T13:44:22.812Z,1.50
2023-02-26T13:47:02.144Z,1.70
2023-02-26T13:49:36.301Z,1.10
2023-02-26T13:52:07.136Z,1.20
2023-02-26T13:54:47.018Z,1.30
2023-02-26T13:57:40.196Z,1.20
2023-02-26T14:00:25.922Z,1.37
2023-02-26T14:03:02.115Z,1.77
2023-02-26T14:09:01.403Z,1.30
2023-02-26T14:12:01.411Z,1.33
2023-02-26T14:14:42.285Z,1.20
2023-02-26T14:20:25.511Z,1.00
2023-02-26T14:23:16.924Z,1.17
2023-02-26T14:25:52.991Z,0.90
2023-02-26T14:28:46.383Z,1.40
2023-02-26T14:31:22.612Z,1.10
2023-02-26T14:34:04.619Z,1.20
2023-02-26T14:36:39.956Z,1.20
2023-02-26T14:39:16.671Z,1.20
2023-02-26T14:41:48.097Z,1.23
2023-02-26T14:47:00.599Z,1.60
2023-02-26T14:49:34.593Z,1.40
2023-02-26T14:55:31.884Z,1.03
2023-02-26T14:58:11.546Z,1.10
2023-02-26T15:00:47.214Z,1.67
2023-02-26T15:03:53.866Z,1.40
2023-02-26T15:06:40.126Z,1.10
2023-02-26T15:09:16.317Z,1.20
2023-02-26T15:11:57.344Z,1.23
2023-02-26T15:14:50.945Z,1.17
2023-02-26T15:17:33.017Z,1.30
2023-02-26T15:20:14.447Z,1.30
2023-02-26T15:22:59.668Z,1.30
2023-02-26T15:25:34.267Z,1.07
2023-02-26T15:28:08.221Z,1.10
2023-02-26T15:30:39.796Z,1.23
2023-02-26T15:33:16.136Z,1.10
2023-02-26T15:35:48.682Z,1.13
2023-02-26T15:38:19.920Z,1.53
2023-02-26T15:40:53.510Z,1.10
2023-02-26T15:43:27.511Z,1.17
2023-02-26T15:46:03.383Z,1.20
2023-02-26T15:48:38.189Z,1.20
2023-02-26T15:51:12.423Z,1.30
2023-02-26T15:53:46.558Z,1.20
2023-02-26T15:56:20.072Z,1.30
2023-02-26T16:01:32.935Z,1.30
2023-02-26T16:04:06.558Z,0.93
2023-02-26T16:06:39.606Z,1.33
2023-02-26T16:09:17.816Z,1.30
2023-02-26T16:11:49.917Z,1.20
2023-02-26T16:17:01.793Z,1.10
2023-02-26T16:19:37.141Z,1.50
2023-02-26T16:22:11.094Z,1.13
2023-02-26T16:24:42.474Z,1.20
2023-02-26T16:27:15.137Z,1.30
2023-02-26T16:29:49.629Z,1.35
2023-02-26T16:32:21.531Z,1.07
2023-02-26T16:34:55.928Z,1.30
2023-02-26T16:37:31.843Z,1.10
2023-02-26T16:42:50.178Z,1.00
2023-02-26T16:45:36.856Z,1.63
2023-02-26T16:48:10.182Z,1.40
2023-02-26T16:50:41.299Z,1.40
2023-02-26T16:53:16.754Z,1.20
2023-02-26T16:55:50.530Z,1.60
2023-02-26T16:58:23.276Z,1.30
2023-02-26T17:01:00.086Z,1.00
2023-02-26T17:03:32.615Z,2.27
2023-02-26T17:06:06.873Z,1.33
2023-02-26T17:08:40.358Z,1.47
2023-02-26T17:11:17.033Z,1.50
2023-02-26T17:13:49.355Z,1.50
2023-02-26T17:16:21.686Z,1.33
2023-02-26T17:18:53.026Z,1.20
2023-02-26T17:21:24.143Z,1.30
2023-02-26T17:23:55.376Z,1.90
2023-02-26T17:26:26.931Z,1.43
2023-02-26T17:28:58.345Z,1.37
2023-02-26T17:31:29.996Z,1.37
2023-02-26T17:34:01.025Z,1.03
2023-02-26T17:36:31.974Z,1.70
2023-02-26T17:39:03.080Z,1.80
2023-02-26T17:41:34.425Z,1.60
2023-02-26T17:44:05.242Z,1.70
2023-02-26T17:46:36.066Z,1.80
2023-02-26T17:49:06.781Z,1.80
2023-02-26T17:51:37.519Z,1.83
2023-02-26T17:54:08.607Z,1.70
2023-02-26T17:56:39.623Z,1.50
2023-02-26T17:59:13.047Z,1.57
2023-02-26T18:01:43.928Z,1.60
2023-02-26T18:04:16.375Z,1.57
2023-02-26T18:06:47.344Z,1.60
2023-02-26T18:09:19.095Z,1.60
2023-02-26T18:11:53.277Z,1.60
2023-02-26T18:14:24.217Z,1.53
2023-02-26T18:16:55.932Z,1.57
2023-02-26T18:19:27.204Z,1.80
2023-02-26T18:22:17.550Z,1.40
2023-02-26T18:24:48.752Z,1.90
2023-02-26T18:27:22.433Z,1.50
2023-02-26T18:29:54.376Z,1.80
2023-02-26T18:32:28.181Z,1.40
2023-02-26T18:34:59.503Z,1.47
2023-02-26T18:37:31.025Z,1.60
2023-02-26T18:40:02.365Z,1.40
2023-02-26T18:42:34.080Z,2.00
2023-02-26T18:45:05.868Z,1.57
2023-02-26T18:47:37.898Z,1.70
2023-02-26T18:50:13.914Z,1.33
2023-02-26T18:52:46.217Z,1.47
2023-02-26T18:55:18.633Z,1.30
2023-02-26T18:57:49.493Z,1.40
2023-02-26T19:00:22.167Z,1.60
2023-02-26T19:02:53.516Z,1.53
2023-02-26T19:05:26.820Z,1.53
2023-02-26T19:07:57.877Z,1.40
2023-02-26T19:10:31.430Z,1.50
2023-02-26T19:13:02.719Z,1.63
2023-02-26T19:15:33.971Z,1.20
2023-02-26T19:18:05.147Z,1.50
2023-02-26T19:20:36.080Z,1.40
2023-02-26T19:23:09.795Z,1.70
2023-02-26T19:25:42.694Z,1.67
2023-02-26T19:28:14.129Z,1.57
2023-02-26T19:30:46.935Z,1.63
2023-02-26T19:33:20.360Z,1.70
2023-02-26T19:35:52.039Z,1.60
2023-02-26T19:38:24.558Z,1.67
2023-02-26T19:40:56.705Z,1.70
2023-02-26T19:43:28.274Z,1.60
2023-02-26T19:45:59.901Z,1.87
2023-02-26T19:48:33.769Z,1.40
2023-02-26T19:51:05.853Z,1.50
2023-02-26T19:53:37.504Z,1.40
2023-02-26T19:56:10.034Z,1.90
2023-02-26T19:59:00.303Z,1.70
2023-02-26T20:01:31.937Z,1.70
2023-02-26T20:04:03.782Z,1.70
2023-02-26T20:06:35.980Z,1.67
2023-02-26T20:09:07.662Z,1.70
2023-02-26T20:11:39.756Z,1.57
2023-02-26T20:14:11.519Z,1.93
2023-02-26T20:16:42.752Z,1.87
2023-02-26T20:19:14.220Z,1.93
2023-02-26T20:21:45.687Z,1.90
2023-02-26T20:24:17.586Z,1.53
2023-02-26T20:26:49.818Z,1.70
2023-02-26T20:29:20.815Z,1.70
2023-02-26T20:31:53.636Z,1.73
2023-02-26T20:34:24.954Z,2.03
2023-02-26T20:36:55.961Z,1.60
2023-02-26T20:39:27.327Z,1.57
2023-02-26T20:41:58.475Z,1.73
2023-02-26T20:44:33.480Z,1.50
2023-02-26T20:47:05.775Z,1.80
2023-02-26T20:49:37.121Z,1.60
2023-02-26T20:52:08.448Z,1.63
2023-02-26T20:54:39.475Z,1.57
2023-02-26T20:57:11.435Z,1.90
2023-02-26T20:59:42.377Z,2.00
2023-02-26T21:02:15.931Z,1.50
2023-02-26T21:04:47.582Z,1.63
2023-02-26T21:07:21.970Z,1.97
2023-02-26T21:09:55.194Z,2.00
2023-02-26T21:12:26.421Z,1.40
2023-02-26T21:14:57.336Z,1.70
2023-02-26T21:17:28.753Z,1.90
2023-02-26T21:19:59.898Z,1.53
2023-02-26T21:22:30.775Z,1.90
2023-02-26T21:25:01.787Z,1.30
2023-02-26T21:27:32.774Z,1.70
2023-02-26T21:30:04.133Z,1.47
2023-02-26T21:32:35.312Z,1.73
2023-02-26T21:35:07.601Z,1.80
2023-02-26T21:37:39.240Z,1.60
2023-02-26T21:40:13.530Z,1.80
2023-02-26T21:42:44.958Z,1.83
2023-02-26T21:45:16.100Z,1.77
2023-02-26T21:47:47.013Z,2.00
2023-02-26T21:50:18.865Z,2.20
2023-02-26T21:52:49.937Z,2.17
2023-02-26T21:55:21.071Z,1.80
2023-02-26T21:57:52.030Z,2.07
2023-02-26T22:00:25.032Z,1.87
2023-02-26T22:02:56.487Z,1.90
2023-02-26T22:05:27.457Z,1.87
2023-02-26T22:07:58.558Z,2.00
2023-02-26T22:10:29.600Z,1.87
2023-02-26T22:13:00.584Z,2.10
2023-02-26T22:15:32.850Z,1.83
2023-02-26T22:18:03.842Z,2.20
2023-02-26T22:20:34.826Z,4.70
2023-02-26T22:23:05.808Z,3.40
2023-02-26T22:25:37.004Z,1.67
2023-02-26T22:28:08.733Z,2.00
2023-02-26T22:30:39.830Z,2.77
2023-02-26T22:33:10.827Z,2.23
2023-02-26T22:35:41.919Z,2.87
2023-02-26T22:38:13.128Z,2.77
2023-02-26T22:40:44.147Z,3.30
2023-02-26T22:43:15.625Z,3.67
2023-02-26T22:45:46.873Z,3.53
2023-02-26T22:48:18.482Z,3.90
2023-02-26T22:50:49.830Z,3.70
2023-02-26T22:53:20.817Z,2.60
2023-02-26T22:55:53.289Z,2.72
2023-02-26T22:58:24.350Z,3.10
2023-02-26T23:01:02.362Z,3.00
2023-02-26T23:03:34.030Z,2.60
2023-02-26T23:06:05.552Z,2.50
2023-02-26T23:08:36.652Z,2.73
2023-02-26T23:11:09.020Z,2.90
2023-02-26T23:13:40.103Z,2.70
2023-02-26T23:16:12.879Z,3.00
2023-02-26T23:18:45.692Z,2.70
2023-02-26T23:21:16.832Z,2.83
2023-02-26T23:23:47.723Z,2.80
2023-02-26T23:26:19.066Z,2.80
2023-02-26T23:28:50.011Z,2.73
2023-02-26T23:31:21.334Z,3.10
2023-02-26T23:33:52.420Z,2.57
2023-02-26T23:36:23.331Z,2.80
2023-02-26T23:38:54.630Z,2.70
2023-02-26T23:41:25.924Z,2.30
2023-02-26T23:43:56.981Z,2.70
2023-02-26T23:46:28.105Z,2.70
2023-02-26T23:48:59.279Z,2.63
2023-02-26T23:51:30.146Z,2.30
2023-02-26T23:54:01.172Z,2.20
2023-02-26T23:56:33.323Z,2.60
2023-02-26T23:59:04.625Z,2.43
